sensor_id;sensor_type;location;lat;lon;timestamp;P1;durP1;ratioP1;P2;durP2;ratioP2
37903;SDS011;23738;50.422;18.758;2023-01-25T00:01:05;10.00;;;8.40;;
37903;SDS011;23738;50.422;18.758;2023-01-25T00:03:33;13.10;;;9.50;;
37903;SDS011;23738;50.422;18.758;2023-01-25T00:06:01;12.40;;;9.80;;
37903;SDS011;23738;50.422;18.758;2023-01-25T00:08:30;10.40;;;8.50;;
37903;SDS011;23738;50.422;18.758;2023-01-25T00:10:58;14.30;;;9.60;;
37903;SDS011;23738;50.422;18.758;2023-01-25T00:13:26;12.40;;;10.40;;
37903;SDS011;23738;50.422;18.758;2023-01-25T00:15:59;12.30;;;9.00;;
37903;SDS011;23738;50.422;18.758;2023-01-25T00:18:27;9.90;;;8.00;;
37903;SDS011;23738;50.422;18.758;2023-01-25T00:20:54;9.40;;;7.40;;
37903;SDS011;23738;50.422;18.758;2023-01-25T00:23:21;13.10;;;9.00;;
37903;SDS011;23738;50.422;18.758;2023-01-25T00:25:50;11.10;;;7.70;;
37903;SDS011;23738;50.422;18.758;2023-01-25T00:28:23;10.20;;;9.10;;
37903;SDS011;23738;50.422;18.758;2023-01-25T00:30:50;11.40;;;9.10;;
37903;SDS011;23738;50.422;18.758;2023-01-25T00:33:31;10.60;;;8.50;;
37903;SDS011;23738;50.422;18.758;2023-01-25T00:36:20;11.10;;;8.80;;
37903;SDS011;23738;50.422;18.758;2023-01-25T00:38:53;12.80;;;9.30;;
37903;SDS011;23738;50.422;18.758;2023-01-25T00:41:22;9.70;;;7.60;;
37903;SDS011;23738;50.422;18.758;2023-01-25T00:43:50;8.70;;;7.10;;
37903;SDS011;23738;50.422;18.758;2023-01-25T00:46:17;10.20;;;8.30;;
37903;SDS011;23738;50.422;18.758;2023-01-25T00:48:45;9.70;;;7.50;;
37903;SDS011;23738;50.422;18.758;2023-01-25T00:51:12;9.60;;;7.60;;
37903;SDS011;23738;50.422;18.758;2023-01-25T00:53:40;11.60;;;9.90;;
37903;SDS011;23738;50.422;18.758;2023-01-25T00:56:07;10.80;;;8.40;;
37903;SDS011;23738;50.422;18.758;2023-01-25T00:58:34;11.90;;;10.10;;
37903;SDS011;23738;50.422;18.758;2023-01-25T01:01:02;12.40;;;10.00;;
37903;SDS011;23738;50.422;18.758;2023-01-25T01:03:30;11.40;;;8.90;;
37903;SDS011;23738;50.422;18.758;2023-01-25T01:06:01;15.20;;;11.90;;
37903;SDS011;23738;50.422;18.758;2023-01-25T01:08:30;12.90;;;11.60;;
37903;SDS011;23738;50.422;18.758;2023-01-25T01:11:02;12.30;;;10.00;;
37903;SDS011;23738;50.422;18.758;2023-01-25T01:13:31;16.50;;;13.50;;
37903;SDS011;23738;50.422;18.758;2023-01-25T01:16:00;15.80;;;13.90;;
37903;SDS011;23738;50.422;18.758;2023-01-25T01:18:28;16.50;;;13.20;;
37903;SDS011;23738;50.422;18.758;2023-01-25T01:20:59;13.70;;;10.30;;
37903;SDS011;23738;50.422;18.758;2023-01-25T01:23:27;12.80;;;9.10;;
37903;SDS011;23738;50.422;18.758;2023-01-25T01:25:57;9.10;;;8.20;;
37903;SDS011;23738;50.422;18.758;2023-01-25T01:28:26;16.80;;;11.70;;
37903;SDS011;23738;50.422;18.758;2023-01-25T01:30:54;12.70;;;9.80;;
37903;SDS011;23738;50.422;18.758;2023-01-25T01:33:26;16.10;;;10.90;;
37903;SDS011;23738;50.422;18.758;2023-01-25T01:35:53;19.50;;;11.50;;
37903;SDS011;23738;50.422;18.758;2023-01-25T01:38:21;13.60;;;10.30;;
37903;SDS011;23738;50.422;18.758;2023-01-25T01:40:48;12.80;;;10.00;;
37903;SDS011;23738;50.422;18.758;2023-01-25T01:43:16;13.70;;;10.50;;
37903;SDS011;23738;50.422;18.758;2023-01-25T01:45:55;10.00;;;8.70;;
37903;SDS011;23738;50.422;18.758;2023-01-25T01:48:29;13.80;;;10.70;;
37903;SDS011;23738;50.422;18.758;2023-01-25T01:51:02;15.40;;;10.40;;
37903;SDS011;23738;50.422;18.758;2023-01-25T01:53:36;14.00;;;12.40;;
37903;SDS011;23738;50.422;18.758;2023-01-25T01:56:06;14.50;;;10.40;;
37903;SDS011;23738;50.422;18.758;2023-01-25T01:58:38;15.50;;;10.80;;
37903;SDS011;23738;50.422;18.758;2023-01-25T02:01:08;19.90;;;11.30;;
37903;SDS011;23738;50.422;18.758;2023-01-25T02:03:35;13.20;;;11.30;;
37903;SDS011;23738;50.422;18.758;2023-01-25T02:06:04;15.90;;;12.10;;
37903;SDS011;23738;50.422;18.758;2023-01-25T02:08:38;14.40;;;10.70;;
37903;SDS011;23738;50.422;18.758;2023-01-25T02:11:05;13.70;;;11.80;;
37903;SDS011;23738;50.422;18.758;2023-01-25T02:13:34;13.90;;;11.30;;
37903;SDS011;23738;50.422;18.758;2023-01-25T02:16:02;13.40;;;9.70;;
37903;SDS011;23738;50.422;18.758;2023-01-25T02:18:31;13.00;;;9.80;;
37903;SDS011;23738;50.422;18.758;2023-01-25T02:20:59;12.10;;;9.60;;
37903;SDS011;23738;50.422;18.758;2023-01-25T02:23:28;13.00;;;10.50;;
37903;SDS011;23738;50.422;18.758;2023-01-25T02:26:03;13.40;;;10.30;;
37903;SDS011;23738;50.422;18.758;2023-01-25T02:28:33;11.20;;;10.10;;
37903;SDS011;23738;50.422;18.758;2023-01-25T02:31:04;12.80;;;9.40;;
37903;SDS011;23738;50.422;18.758;2023-01-25T02:33:32;11.80;;;8.80;;
37903;SDS011;23738;50.422;18.758;2023-01-25T02:36:00;13.00;;;9.30;;
37903;SDS011;23738;50.422;18.758;2023-01-25T02:38:50;13.40;;;10.20;;
37903;SDS011;23738;50.422;18.758;2023-01-25T02:44:10;13.20;;;10.60;;
37903;SDS011;23738;50.422;18.758;2023-01-25T02:46:40;13.80;;;11.70;;
37903;SDS011;23738;50.422;18.758;2023-01-25T02:49:09;12.70;;;10.90;;
37903;SDS011;23738;50.422;18.758;2023-01-25T02:51:38;13.70;;;10.30;;
37903;SDS011;23738;50.422;18.758;2023-01-25T02:54:07;15.50;;;11.50;;
37903;SDS011;23738;50.422;18.758;2023-01-25T02:56:36;16.80;;;12.60;;
37903;SDS011;23738;50.422;18.758;2023-01-25T02:59:05;18.70;;;12.80;;
37903;SDS011;23738;50.422;18.758;2023-01-25T03:01:33;14.90;;;13.30;;
37903;SDS011;23738;50.422;18.758;2023-01-25T03:04:02;16.30;;;12.20;;
37903;SDS011;23738;50.422;18.758;2023-01-25T03:06:30;14.00;;;11.20;;
37903;SDS011;23738;50.422;18.758;2023-01-25T03:08:57;12.10;;;9.70;;
37903;SDS011;23738;50.422;18.758;2023-01-25T03:11:25;16.40;;;12.00;;
37903;SDS011;23738;50.422;18.758;2023-01-25T03:13:52;15.70;;;11.30;;
37903;SDS011;23738;50.422;18.758;2023-01-25T03:16:19;14.70;;;12.00;;
37903;SDS011;23738;50.422;18.758;2023-01-25T03:18:47;23.00;;;15.50;;
37903;SDS011;23738;50.422;18.758;2023-01-25T03:21:15;36.30;;;18.40;;
37903;SDS011;23738;50.422;18.758;2023-01-25T03:23:45;19.50;;;14.20;;
37903;SDS011;23738;50.422;18.758;2023-01-25T03:26:13;24.30;;;13.00;;
37903;SDS011;23738;50.422;18.758;2023-01-25T03:28:42;22.90;;;14.40;;
37903;SDS011;23738;50.422;18.758;2023-01-25T03:31:12;25.90;;;16.60;;
37903;SDS011;23738;50.422;18.758;2023-01-25T03:33:40;27.00;;;16.70;;
37903;SDS011;23738;50.422;18.758;2023-01-25T03:36:08;30.10;;;16.80;;
37903;SDS011;23738;50.422;18.758;2023-01-25T03:38:36;25.60;;;16.10;;
37903;SDS011;23738;50.422;18.758;2023-01-25T03:41:03;19.20;;;13.40;;
37903;SDS011;23738;50.422;18.758;2023-01-25T03:43:31;19.30;;;14.10;;
37903;SDS011;23738;50.422;18.758;2023-01-25T03:45:59;17.60;;;13.30;;
37903;SDS011;23738;50.422;18.758;2023-01-25T03:48:27;19.60;;;13.50;;
37903;SDS011;23738;50.422;18.758;2023-01-25T03:50:55;20.70;;;14.20;;
37903;SDS011;23738;50.422;18.758;2023-01-25T03:53:24;22.30;;;16.00;;
37903;SDS011;23738;50.422;18.758;2023-01-25T03:55:54;21.50;;;15.10;;
37903;SDS011;23738;50.422;18.758;2023-01-25T03:58:22;23.60;;;17.40;;
37903;SDS011;23738;50.422;18.758;2023-01-25T04:00:50;21.60;;;15.70;;
37903;SDS011;23738;50.422;18.758;2023-01-25T04:03:19;20.50;;;14.00;;
37903;SDS011;23738;50.422;18.758;2023-01-25T04:05:47;18.20;;;12.80;;
37903;SDS011;23738;50.422;18.758;2023-01-25T04:08:14;18.60;;;12.90;;
37903;SDS011;23738;50.422;18.758;2023-01-25T04:10:41;20.60;;;13.30;;
37903;SDS011;23738;50.422;18.758;2023-01-25T04:13:09;18.70;;;15.20;;
37903;SDS011;23738;50.422;18.758;2023-01-25T04:15:36;19.30;;;15.20;;
37903;SDS011;23738;50.422;18.758;2023-01-25T04:18:03;19.50;;;15.40;;
37903;SDS011;23738;50.422;18.758;2023-01-25T04:20:30;19.50;;;14.50;;
37903;SDS011;23738;50.422;18.758;2023-01-25T04:22:58;24.30;;;15.50;;
37903;SDS011;23738;50.422;18.758;2023-01-25T04:25:26;20.50;;;14.40;;
37903;SDS011;23738;50.422;18.758;2023-01-25T04:27:53;18.40;;;15.40;;
37903;SDS011;23738;50.422;18.758;2023-01-25T04:30:20;23.20;;;16.90;;
37903;SDS011;23738;50.422;18.758;2023-01-25T04:32:47;29.20;;;19.20;;
37903;SDS011;23738;50.422;18.758;2023-01-25T04:35:16;25.80;;;18.00;;
37903;SDS011;23738;50.422;18.758;2023-01-25T04:37:46;28.80;;;18.00;;
37903;SDS011;23738;50.422;18.758;2023-01-25T04:40:20;20.90;;;15.80;;
37903;SDS011;23738;50.422;18.758;2023-01-25T04:42:47;27.70;;;18.60;;
37903;SDS011;23738;50.422;18.758;2023-01-25T04:45:14;28.30;;;19.20;;
37903;SDS011;23738;50.422;18.758;2023-01-25T04:47:42;31.20;;;19.70;;
37903;SDS011;23738;50.422;18.758;2023-01-25T04:50:09;39.50;;;21.70;;
37903;SDS011;23738;50.422;18.758;2023-01-25T04:52:37;32.60;;;20.10;;
37903;SDS011;23738;50.422;18.758;2023-01-25T04:55:05;40.70;;;22.60;;
37903;SDS011;23738;50.422;18.758;2023-01-25T04:57:33;40.90;;;21.30;;
37903;SDS011;23738;50.422;18.758;2023-01-25T05:00:00;26.50;;;18.50;;
37903;SDS011;23738;50.422;18.758;2023-01-25T05:02:29;25.10;;;16.10;;
37903;SDS011;23738;50.422;18.758;2023-01-25T05:04:56;24.80;;;16.70;;
37903;SDS011;23738;50.422;18.758;2023-01-25T05:07:23;28.20;;;16.90;;
37903;SDS011;23738;50.422;18.758;2023-01-25T05:09:50;27.30;;;18.50;;
37903;SDS011;23738;50.422;18.758;2023-01-25T05:12:17;27.40;;;16.70;;
37903;SDS011;23738;50.422;18.758;2023-01-25T05:14:45;24.90;;;14.40;;
37903;SDS011;23738;50.422;18.758;2023-01-25T05:17:12;23.00;;;15.50;;
37903;SDS011;23738;50.422;18.758;2023-01-25T05:19:39;22.10;;;16.60;;
37903;SDS011;23738;50.422;18.758;2023-01-25T05:22:09;27.40;;;18.50;;
37903;SDS011;23738;50.422;18.758;2023-01-25T05:24:39;27.40;;;18.00;;
37903;SDS011;23738;50.422;18.758;2023-01-25T05:27:06;28.20;;;18.70;;
37903;SDS011;23738;50.422;18.758;2023-01-25T05:29:35;31.70;;;20.60;;
37903;SDS011;23738;50.422;18.758;2023-01-25T05:32:05;25.00;;;16.90;;
37903;SDS011;23738;50.422;18.758;2023-01-25T05:34:35;16.20;;;13.50;;
37903;SDS011;23738;50.422;18.758;2023-01-25T05:37:04;17.40;;;14.40;;
37903;SDS011;23738;50.422;18.758;2023-01-25T05:39:32;18.90;;;15.50;;
37903;SDS011;23738;50.422;18.758;2023-01-25T05:41:59;22.70;;;16.50;;
37903;SDS011;23738;50.422;18.758;2023-01-25T05:44:27;24.80;;;16.50;;
37903;SDS011;23738;50.422;18.758;2023-01-25T05:46:54;21.30;;;16.80;;
37903;SDS011;23738;50.422;18.758;2023-01-25T05:49:22;22.40;;;15.20;;
37903;SDS011;23738;50.422;18.758;2023-01-25T05:51:49;17.20;;;13.50;;
37903;SDS011;23738;50.422;18.758;2023-01-25T05:54:16;17.10;;;13.20;;
37903;SDS011;23738;50.422;18.758;2023-01-25T05:56:44;25.10;;;15.00;;
37903;SDS011;23738;50.422;18.758;2023-01-25T05:59:13;21.00;;;15.40;;
37903;SDS011;23738;50.422;18.758;2023-01-25T06:01:42;23.40;;;16.60;;
37903;SDS011;23738;50.422;18.758;2023-01-25T06:04:09;20.40;;;17.00;;
37903;SDS011;23738;50.422;18.758;2023-01-25T06:06:39;23.40;;;18.10;;
37903;SDS011;23738;50.422;18.758;2023-01-25T06:09:08;24.60;;;15.60;;
37903;SDS011;23738;50.422;18.758;2023-01-25T06:11:36;21.00;;;13.90;;
37903;SDS011;23738;50.422;18.758;2023-01-25T06:14:04;24.00;;;17.30;;
37903;SDS011;23738;50.422;18.758;2023-01-25T06:16:31;34.00;;;21.20;;
37903;SDS011;23738;50.422;18.758;2023-01-25T06:18:58;47.40;;;26.70;;
37903;SDS011;23738;50.422;18.758;2023-01-25T06:21:25;42.80;;;26.50;;
37903;SDS011;23738;50.422;18.758;2023-01-25T06:23:52;41.00;;;23.30;;
37903;SDS011;23738;50.422;18.758;2023-01-25T06:26:20;29.50;;;18.90;;
37903;SDS011;23738;50.422;18.758;2023-01-25T06:28:47;23.00;;;17.00;;
37903;SDS011;23738;50.422;18.758;2023-01-25T06:31:15;32.00;;;20.00;;
37903;SDS011;23738;50.422;18.758;2023-01-25T06:33:46;33.50;;;21.00;;
37903;SDS011;23738;50.422;18.758;2023-01-25T06:36:15;40.50;;;25.90;;
37903;SDS011;23738;50.422;18.758;2023-01-25T06:38:47;38.80;;;24.00;;
37903;SDS011;23738;50.422;18.758;2023-01-25T06:41:15;46.20;;;28.00;;
37903;SDS011;23738;50.422;18.758;2023-01-25T06:43:43;33.70;;;20.30;;
37903;SDS011;23738;50.422;18.758;2023-01-25T06:46:11;24.60;;;17.60;;
37903;SDS011;23738;50.422;18.758;2023-01-25T06:48:39;27.70;;;19.30;;
37903;SDS011;23738;50.422;18.758;2023-01-25T06:51:08;28.90;;;18.60;;
37903;SDS011;23738;50.422;18.758;2023-01-25T06:53:37;29.60;;;20.50;;
37903;SDS011;23738;50.422;18.758;2023-01-25T06:56:07;37.30;;;22.80;;
37903;SDS011;23738;50.422;18.758;2023-01-25T06:58:36;34.70;;;22.80;;
37903;SDS011;23738;50.422;18.758;2023-01-25T07:01:04;31.30;;;20.10;;
37903;SDS011;23738;50.422;18.758;2023-01-25T07:03:33;30.90;;;20.00;;
37903;SDS011;23738;50.422;18.758;2023-01-25T07:06:00;35.90;;;21.20;;
37903;SDS011;23738;50.422;18.758;2023-01-25T07:08:29;42.10;;;23.50;;
37903;SDS011;23738;50.422;18.758;2023-01-25T07:10:57;40.50;;;23.20;;
37903;SDS011;23738;50.422;18.758;2023-01-25T07:13:26;41.90;;;23.90;;
37903;SDS011;23738;50.422;18.758;2023-01-25T07:15:55;49.40;;;27.20;;
37903;SDS011;23738;50.422;18.758;2023-01-25T07:18:24;49.10;;;26.30;;
37903;SDS011;23738;50.422;18.758;2023-01-25T07:20:52;44.70;;;25.20;;
37903;SDS011;23738;50.422;18.758;2023-01-25T07:23:19;47.00;;;24.60;;
37903;SDS011;23738;50.422;18.758;2023-01-25T07:25:47;34.50;;;20.70;;
37903;SDS011;23738;50.422;18.758;2023-01-25T07:28:16;29.70;;;18.60;;
37903;SDS011;23738;50.422;18.758;2023-01-25T07:30:43;28.80;;;18.50;;
37903;SDS011;23738;50.422;18.758;2023-01-25T07:33:10;33.70;;;19.80;;
37903;SDS011;23738;50.422;18.758;2023-01-25T07:35:37;35.20;;;18.80;;
37903;SDS011;23738;50.422;18.758;2023-01-25T07:38:04;37.30;;;18.60;;
37903;SDS011;23738;50.422;18.758;2023-01-25T07:40:32;29.50;;;18.80;;
37903;SDS011;23738;50.422;18.758;2023-01-25T07:42:59;39.40;;;21.10;;
37903;SDS011;23738;50.422;18.758;2023-01-25T07:45:26;58.20;;;29.70;;
37903;SDS011;23738;50.422;18.758;2023-01-25T07:47:56;67.00;;;31.50;;
37903;SDS011;23738;50.422;18.758;2023-01-25T07:50:24;106.50;;;44.70;;
37903;SDS011;23738;50.422;18.758;2023-01-25T07:52:52;61.70;;;27.20;;
37903;SDS011;23738;50.422;18.758;2023-01-25T07:55:20;54.00;;;24.00;;
37903;SDS011;23738;50.422;18.758;2023-01-25T07:57:48;48.30;;;24.90;;
37903;SDS011;23738;50.422;18.758;2023-01-25T08:00:20;36.00;;;21.20;;
37903;SDS011;23738;50.422;18.758;2023-01-25T08:02:49;37.70;;;21.50;;
37903;SDS011;23738;50.422;18.758;2023-01-25T08:05:17;39.20;;;21.90;;
37903;SDS011;23738;50.422;18.758;2023-01-25T08:07:45;38.80;;;23.10;;
37903;SDS011;23738;50.422;18.758;2023-01-25T08:10:13;42.40;;;20.80;;
37903;SDS011;23738;50.422;18.758;2023-01-25T08:12:43;36.60;;;18.40;;
37903;SDS011;23738;50.422;18.758;2023-01-25T08:15:11;22.60;;;14.90;;
37903;SDS011;23738;50.422;18.758;2023-01-25T08:17:39;24.00;;;15.70;;
37903;SDS011;23738;50.422;18.758;2023-01-25T08:20:07;31.00;;;18.50;;
37903;SDS011;23738;50.422;18.758;2023-01-25T08:22:37;40.80;;;21.00;;
37903;SDS011;23738;50.422;18.758;2023-01-25T08:25:05;45.30;;;22.90;;
37903;SDS011;23738;50.422;18.758;2023-01-25T08:27:33;44.30;;;21.00;;
37903;SDS011;23738;50.422;18.758;2023-01-25T08:30:00;41.10;;;19.50;;
37903;SDS011;23738;50.422;18.758;2023-01-25T08:32:28;68.20;;;24.70;;
37903;SDS011;23738;50.422;18.758;2023-01-25T08:34:56;43.50;;;19.60;;
37903;SDS011;23738;50.422;18.758;2023-01-25T08:37:23;35.40;;;19.30;;
37903;SDS011;23738;50.422;18.758;2023-01-25T08:39:54;42.30;;;22.20;;
37903;SDS011;23738;50.422;18.758;2023-01-25T08:42:22;38.60;;;20.60;;
37903;SDS011;23738;50.422;18.758;2023-01-25T08:44:49;58.60;;;25.00;;
37903;SDS011;23738;50.422;18.758;2023-01-25T08:47:17;57.60;;;23.10;;
37903;SDS011;23738;50.422;18.758;2023-01-25T08:49:44;60.40;;;24.80;;
37903;SDS011;23738;50.422;18.758;2023-01-25T08:52:12;52.40;;;23.40;;
37903;SDS011;23738;50.422;18.758;2023-01-25T08:54:39;40.00;;;21.00;;
37903;SDS011;23738;50.422;18.758;2023-01-25T08:57:09;44.30;;;23.70;;
37903;SDS011;23738;50.422;18.758;2023-01-25T08:59:36;45.90;;;23.10;;
37903;SDS011;23738;50.422;18.758;2023-01-25T09:02:03;39.90;;;19.50;;
37903;SDS011;23738;50.422;18.758;2023-01-25T09:04:31;32.40;;;15.50;;
37903;SDS011;23738;50.422;18.758;2023-01-25T09:06:58;28.10;;;15.60;;
37903;SDS011;23738;50.422;18.758;2023-01-25T09:09:25;25.80;;;15.90;;
37903;SDS011;23738;50.422;18.758;2023-01-25T09:11:52;30.80;;;18.00;;
37903;SDS011;23738;50.422;18.758;2023-01-25T09:14:19;40.40;;;21.40;;
37903;SDS011;23738;50.422;18.758;2023-01-25T09:16:46;31.00;;;19.20;;
37903;SDS011;23738;50.422;18.758;2023-01-25T09:19:14;27.90;;;18.20;;
37903;SDS011;23738;50.422;18.758;2023-01-25T09:21:41;21.70;;;15.30;;
37903;SDS011;23738;50.422;18.758;2023-01-25T09:24:08;19.70;;;14.10;;
37903;SDS011;23738;50.422;18.758;2023-01-25T09:26:36;19.70;;;14.10;;
37903;SDS011;23738;50.422;18.758;2023-01-25T09:29:05;23.30;;;15.10;;
37903;SDS011;23738;50.422;18.758;2023-01-25T09:31:33;54.10;;;27.90;;
37903;SDS011;23738;50.422;18.758;2023-01-25T09:34:04;25.70;;;16.30;;
37903;SDS011;23738;50.422;18.758;2023-01-25T09:36:31;17.20;;;12.80;;
37903;SDS011;23738;50.422;18.758;2023-01-25T09:38:58;18.40;;;11.80;;
37903;SDS011;23738;50.422;18.758;2023-01-25T09:41:41;19.00;;;11.90;;
37903;SDS011;23738;50.422;18.758;2023-01-25T09:44:26;14.40;;;11.80;;
37903;SDS011;23738;50.422;18.758;2023-01-25T09:47:03;13.70;;;10.50;;
37903;SDS011;23738;50.422;18.758;2023-01-25T09:50:00;18.00;;;13.30;;
37903;SDS011;23738;50.422;18.758;2023-01-25T09:52:51;20.50;;;13.60;;
37903;SDS011;23738;50.422;18.758;2023-01-25T09:55:32;15.60;;;9.70;;
37903;SDS011;23738;50.422;18.758;2023-01-25T09:58:00;10.40;;;8.30;;
37903;SDS011;23738;50.422;18.758;2023-01-25T10:00:30;11.20;;;8.40;;
37903;SDS011;23738;50.422;18.758;2023-01-25T10:03:00;14.20;;;10.40;;
37903;SDS011;23738;50.422;18.758;2023-01-25T10:08:10;19.00;;;12.60;;
37903;SDS011;23738;50.422;18.758;2023-01-25T10:10:47;14.20;;;11.70;;
37903;SDS011;23738;50.422;18.758;2023-01-25T10:13:22;13.60;;;10.50;;
37903;SDS011;23738;50.422;18.758;2023-01-25T10:15:57;22.10;;;14.00;;
37903;SDS011;23738;50.422;18.758;2023-01-25T10:18:30;13.60;;;11.40;;
37903;SDS011;23738;50.422;18.758;2023-01-25T10:21:02;14.20;;;10.70;;
37903;SDS011;23738;50.422;18.758;2023-01-25T10:23:47;17.00;;;12.30;;
37903;SDS011;23738;50.422;18.758;2023-01-25T10:26:34;22.40;;;13.90;;
37903;SDS011;23738;50.422;18.758;2023-01-25T10:29:02;17.90;;;12.80;;
37903;SDS011;23738;50.422;18.758;2023-01-25T10:31:37;16.40;;;11.80;;
37903;SDS011;23738;50.422;18.758;2023-01-25T10:34:14;13.80;;;10.40;;
37903;SDS011;23738;50.422;18.758;2023-01-25T10:36:46;15.90;;;11.60;;
37903;SDS011;23738;50.422;18.758;2023-01-25T10:39:18;17.70;;;12.60;;
37903;SDS011;23738;50.422;18.758;2023-01-25T10:41:47;17.70;;;13.90;;
37903;SDS011;23738;50.422;18.758;2023-01-25T10:44:19;20.30;;;14.40;;
37903;SDS011;23738;50.422;18.758;2023-01-25T10:46:47;19.70;;;14.70;;
37903;SDS011;23738;50.422;18.758;2023-01-25T10:49:20;23.30;;;15.30;;
37903;SDS011;23738;50.422;18.758;2023-01-25T10:51:50;22.50;;;13.60;;
37903;SDS011;23738;50.422;18.758;2023-01-25T10:54:17;30.20;;;17.20;;
37903;SDS011;23738;50.422;18.758;2023-01-25T10:56:47;22.70;;;14.70;;
37903;SDS011;23738;50.422;18.758;2023-01-25T10:59:17;27.50;;;16.50;;
37903;SDS011;23738;50.422;18.758;2023-01-25T11:01:48;20.90;;;14.40;;
37903;SDS011;23738;50.422;18.758;2023-01-25T11:04:28;25.00;;;16.50;;
37903;SDS011;23738;50.422;18.758;2023-01-25T11:06:57;25.50;;;15.60;;
37903;SDS011;23738;50.422;18.758;2023-01-25T11:09:34;28.00;;;16.00;;
37903;SDS011;23738;50.422;18.758;2023-01-25T11:12:04;23.10;;;15.20;;
37903;SDS011;23738;50.422;18.758;2023-01-25T11:14:43;24.20;;;15.70;;
37903;SDS011;23738;50.422;18.758;2023-01-25T11:17:24;21.20;;;14.60;;
37903;SDS011;23738;50.422;18.758;2023-01-25T11:20:15;22.50;;;16.90;;
37903;SDS011;23738;50.422;18.758;2023-01-25T11:22:48;27.80;;;16.40;;
37903;SDS011;23738;50.422;18.758;2023-01-25T11:25:23;25.60;;;17.40;;
37903;SDS011;23738;50.422;18.758;2023-01-25T11:27:58;25.90;;;14.90;;
37903;SDS011;23738;50.422;18.758;2023-01-25T11:30:36;83.70;;;46.40;;
37903;SDS011;23738;50.422;18.758;2023-01-25T11:33:06;38.60;;;21.80;;
37903;SDS011;23738;50.422;18.758;2023-01-25T11:35:36;38.30;;;22.20;;
37903;SDS011;23738;50.422;18.758;2023-01-25T11:38:12;36.50;;;20.70;;
37903;SDS011;23738;50.422;18.758;2023-01-25T11:40:44;48.00;;;26.30;;
37903;SDS011;23738;50.422;18.758;2023-01-25T11:43:19;124.70;;;49.00;;
37903;SDS011;23738;50.422;18.758;2023-01-25T11:48:52;78.50;;;33.90;;
37903;SDS011;23738;50.422;18.758;2023-01-25T11:51:30;65.10;;;31.20;;
37903;SDS011;23738;50.422;18.758;2023-01-25T11:57:11;55.10;;;24.00;;
37903;SDS011;23738;50.422;18.758;2023-01-25T11:59:58;74.80;;;30.90;;
37903;SDS011;23738;50.422;18.758;2023-01-25T12:02:53;84.90;;;34.20;;
37903;SDS011;23738;50.422;18.758;2023-01-25T12:05:38;64.20;;;29.40;;
37903;SDS011;23738;50.422;18.758;2023-01-25T12:08:17;79.20;;;35.30;;
37903;SDS011;23738;50.422;18.758;2023-01-25T12:10:57;82.30;;;37.30;;
37903;SDS011;23738;50.422;18.758;2023-01-25T12:13:34;56.90;;;28.20;;
37903;SDS011;23738;50.422;18.758;2023-01-25T12:16:19;46.60;;;23.10;;
37903;SDS011;23738;50.422;18.758;2023-01-25T12:19:04;41.30;;;21.50;;
37903;SDS011;23738;50.422;18.758;2023-01-25T12:21:47;46.10;;;23.70;;
37903;SDS011;23738;50.422;18.758;2023-01-25T12:24:32;51.30;;;27.20;;
37903;SDS011;23738;50.422;18.758;2023-01-25T12:27:13;53.10;;;27.10;;
37903;SDS011;23738;50.422;18.758;2023-01-25T12:29:54;50.00;;;25.90;;
37903;SDS011;23738;50.422;18.758;2023-01-25T12:32:27;48.70;;;26.40;;
37903;SDS011;23738;50.422;18.758;2023-01-25T12:37:52;48.70;;;23.60;;
37903;SDS011;23738;50.422;18.758;2023-01-25T12:40:24;45.80;;;23.40;;
37903;SDS011;23738;50.422;18.758;2023-01-25T12:43:00;41.10;;;22.70;;
37903;SDS011;23738;50.422;18.758;2023-01-25T12:45:29;45.00;;;24.50;;
37903;SDS011;23738;50.422;18.758;2023-01-25T12:48:00;48.20;;;23.70;;
37903;SDS011;23738;50.422;18.758;2023-01-25T12:50:32;55.60;;;27.60;;
37903;SDS011;23738;50.422;18.758;2023-01-25T12:53:09;53.60;;;27.50;;
37903;SDS011;23738;50.422;18.758;2023-01-25T12:55:42;57.10;;;28.60;;
37903;SDS011;23738;50.422;18.758;2023-01-25T12:58:11;51.40;;;24.70;;
37903;SDS011;23738;50.422;18.758;2023-01-25T13:00:48;49.60;;;24.10;;
37903;SDS011;23738;50.422;18.758;2023-01-25T13:03:27;49.70;;;24.30;;
37903;SDS011;23738;50.422;18.758;2023-01-25T13:08:33;34.60;;;19.40;;
37903;SDS011;23738;50.422;18.758;2023-01-25T13:11:09;34.50;;;19.30;;
37903;SDS011;23738;50.422;18.758;2023-01-25T13:13:41;36.90;;;20.70;;
37903;SDS011;23738;50.422;18.758;2023-01-25T13:19:03;27.50;;;14.70;;
37903;SDS011;23738;50.422;18.758;2023-01-25T13:21:43;20.30;;;13.40;;
37903;SDS011;23738;50.422;18.758;2023-01-25T13:24:19;22.30;;;14.80;;
37903;SDS011;23738;50.422;18.758;2023-01-25T13:26:50;19.60;;;14.60;;
37903;SDS011;23738;50.422;18.758;2023-01-25T13:35:25;24.30;;;17.00;;
37903;SDS011;23738;50.422;18.758;2023-01-25T13:41:07;21.70;;;13.60;;
37903;SDS011;23738;50.422;18.758;2023-01-25T13:43:42;15.60;;;11.70;;
37903;SDS011;23738;50.422;18.758;2023-01-25T13:46:14;15.70;;;11.90;;
37903;SDS011;23738;50.422;18.758;2023-01-25T13:48:58;19.00;;;13.30;;
37903;SDS011;23738;50.422;18.758;2023-01-25T13:51:31;18.70;;;13.80;;
37903;SDS011;23738;50.422;18.758;2023-01-25T13:54:03;18.10;;;14.10;;
37903;SDS011;23738;50.422;18.758;2023-01-25T13:56:31;18.50;;;14.60;;
37903;SDS011;23738;50.422;18.758;2023-01-25T13:59:00;17.50;;;14.20;;
37903;SDS011;23738;50.422;18.758;2023-01-25T14:01:27;29.70;;;14.70;;
37903;SDS011;23738;50.422;18.758;2023-01-25T14:03:57;16.10;;;11.40;;
37903;SDS011;23738;50.422;18.758;2023-01-25T14:06:27;21.00;;;14.50;;
37903;SDS011;23738;50.422;18.758;2023-01-25T14:08:57;26.90;;;17.30;;
37903;SDS011;23738;50.422;18.758;2023-01-25T14:11:32;23.80;;;16.00;;
37903;SDS011;23738;50.422;18.758;2023-01-25T14:14:15;27.30;;;16.70;;
37903;SDS011;23738;50.422;18.758;2023-01-25T14:16:44;20.80;;;14.40;;
37903;SDS011;23738;50.422;18.758;2023-01-25T14:19:21;22.70;;;14.30;;
37903;SDS011;23738;50.422;18.758;2023-01-25T14:21:50;16.40;;;11.30;;
37903;SDS011;23738;50.422;18.758;2023-01-25T14:24:44;14.80;;;10.90;;
37903;SDS011;23738;50.422;18.758;2023-01-25T14:27:12;15.80;;;12.10;;
37903;SDS011;23738;50.422;18.758;2023-01-25T14:29:46;15.80;;;12.40;;
37903;SDS011;23738;50.422;18.758;2023-01-25T14:32:15;19.70;;;13.30;;
37903;SDS011;23738;50.422;18.758;2023-01-25T14:34:46;17.30;;;13.20;;
37903;SDS011;23738;50.422;18.758;2023-01-25T14:37:15;23.50;;;16.00;;
37903;SDS011;23738;50.422;18.758;2023-01-25T14:39:46;25.70;;;15.30;;
37903;SDS011;23738;50.422;18.758;2023-01-25T14:42:16;31.70;;;17.10;;
37903;SDS011;23738;50.422;18.758;2023-01-25T14:44:44;25.50;;;14.70;;
37903;SDS011;23738;50.422;18.758;2023-01-25T14:47:19;28.70;;;15.40;;
37903;SDS011;23738;50.422;18.758;2023-01-25T14:49:48;34.50;;;16.30;;
37903;SDS011;23738;50.422;18.758;2023-01-25T14:52:16;66.10;;;22.50;;
37903;SDS011;23738;50.422;18.758;2023-01-25T14:54:47;44.50;;;20.00;;
37903;SDS011;23738;50.422;18.758;2023-01-25T14:57:28;39.70;;;18.50;;
37903;SDS011;23738;50.422;18.758;2023-01-25T14:59:59;44.70;;;20.40;;